createdAt,value
2022-08-09T00:01:52.886Z,17.80
2022-08-09T00:05:03.683Z,17.73
2022-08-09T00:08:32.641Z,17.79
2022-08-09T00:12:03.236Z,17.64
2022-08-09T00:14:58.473Z,17.57
2022-08-09T00:18:11.372Z,17.60
2022-08-09T00:21:14.682Z,17.47
2022-08-09T00:24:19.849Z,17.40
2022-08-09T00:27:22.218Z,17.50
2022-08-09T00:30:26.723Z,17.65
2022-08-09T00:33:32.794Z,17.68
2022-08-09T00:36:52.037Z,17.72
2022-08-09T00:40:12.595Z,17.75
2022-08-09T00:44:10.531Z,17.72
2022-08-09T00:46:56.358Z,17.73
2022-08-09T00:50:01.475Z,18.03
2022-08-09T00:53:10.175Z,17.66
2022-08-09T00:56:15.216Z,17.98
2022-08-09T00:59:40.401Z,17.85
2022-08-09T01:02:47.245Z,17.73
2022-08-09T01:06:20.497Z,17.72
2022-08-09T01:09:37.913Z,17.62
2022-08-09T01:12:47.176Z,17.76
2022-08-09T01:15:54.700Z,17.92
2022-08-09T01:19:02.651Z,18.02
2022-08-09T01:22:55.230Z,17.85
2022-08-09T01:26:19.009Z,17.53
2022-08-09T01:29:55.494Z,17.45
2022-08-09T01:33:00.344Z,17.72
2022-08-09T01:36:09.042Z,17.72
2022-08-09T01:39:11.618Z,17.76
2022-08-09T01:42:16.186Z,17.67
2022-08-09T01:45:19.349Z,17.65
2022-08-09T01:48:29.802Z,17.77
2022-08-09T01:51:34.108Z,17.57
2022-08-09T01:54:41.357Z,17.46
2022-08-09T01:57:46.002Z,17.55
2022-08-09T02:00:50.577Z,17.64
2022-08-09T02:03:53.798Z,17.52
2022-08-09T02:07:17.973Z,17.37
2022-08-09T02:10:29.716Z,17.23
2022-08-09T02:13:37.540Z,17.15
2022-08-09T02:16:59.755Z,17.25
2022-08-09T02:20:07.024Z,17.36
2022-08-09T02:23:13.844Z,17.24
2022-08-09T02:26:25.219Z,17.25
2022-08-09T02:29:32.759Z,17.23
2022-08-09T02:32:38.745Z,17.25
2022-08-09T02:36:01.943Z,17.18
2022-08-09T02:39:14.471Z,16.97
2022-08-09T02:42:34.186Z,17.02
2022-08-09T02:45:42.746Z,17.06
2022-08-09T02:48:47.472Z,16.87
2022-08-09T02:51:56.599Z,17.01
2022-08-09T02:55:03.186Z,17.08
2022-08-09T02:58:35.894Z,16.93
2022-08-09T03:02:05.745Z,17.06
2022-08-09T03:05:04.449Z,17.01
2022-08-09T03:08:09.540Z,16.98
2022-08-09T03:11:15.292Z,16.79
2022-08-09T03:14:38.513Z,16.63
2022-08-09T03:17:44.013Z,16.60
2022-08-09T03:20:46.486Z,16.73
2022-08-09T03:24:04.490Z,16.70
2022-08-09T03:27:09.465Z,16.62
2022-08-09T03:30:33.144Z,16.56
2022-08-09T03:33:54.718Z,16.55
2022-08-09T03:36:59.567Z,16.45
2022-08-09T03:40:02.378Z,16.43
2022-08-09T03:43:07.256Z,16.36
2022-08-09T03:46:20.516Z,16.36
2022-08-09T03:49:32.811Z,16.27
2022-08-09T03:52:39.221Z,16.37
2022-08-09T03:55:42.389Z,16.36
2022-08-09T03:58:44.908Z,16.42
2022-08-09T04:01:50.116Z,16.29
2022-08-09T04:04:53.675Z,16.44
2022-08-09T04:07:56.773Z,16.47
2022-08-09T04:11:01.312Z,16.49
2022-08-09T04:14:53.185Z,16.56
2022-08-09T04:17:26.339Z,16.67
2022-08-09T04:20:32.681Z,16.93
2022-08-09T04:23:35.086Z,17.41
2022-08-09T04:26:38.364Z,17.73
2022-08-09T04:29:40.657Z,18.53
2022-08-09T04:32:52.546Z,19.15
2022-08-09T04:35:56.469Z,19.93
2022-08-09T04:39:00.855Z,19.91
2022-08-09T04:42:03.374Z,20.06
2022-08-09T04:45:06.283Z,20.60
2022-08-09T04:48:10.519Z,20.69
2022-08-09T04:51:12.981Z,20.54
2022-08-09T04:54:20.088Z,20.09
2022-08-09T04:57:24.383Z,20.15
2022-08-09T05:00:31.954Z,20.21
2022-08-09T05:03:43.266Z,20.48
2022-08-09T05:06:46.242Z,20.88
2022-08-09T05:09:52.859Z,21.08
2022-08-09T05:12:55.069Z,22.17
2022-08-09T05:15:57.274Z,21.86
2022-08-09T05:19:00.511Z,21.45
2022-08-09T05:22:05.104Z,21.72
2022-08-09T05:25:28.324Z,21.15
2022-08-09T05:28:34.878Z,21.18
2022-08-09T05:31:46.614Z,21.15
2022-08-09T05:34:52.845Z,20.69
2022-08-09T05:37:57.143Z,20.66
2022-08-09T05:41:01.055Z,20.40
2022-08-09T05:44:03.562Z,20.44
2022-08-09T05:47:07.670Z,19.93
2022-08-09T05:50:26.882Z,19.86
2022-08-09T05:53:37.239Z,20.06
2022-08-09T05:56:56.710Z,20.09
2022-08-09T05:59:59.050Z,20.76
2022-08-09T06:03:03.616Z,20.84
2022-08-09T06:06:06.494Z,20.94
2022-08-09T06:09:09.974Z,20.92
2022-08-09T06:12:31.406Z,21.01
2022-08-09T06:15:33.850Z,21.01
2022-08-09T06:18:36.534Z,21.19
2022-08-09T06:21:39.669Z,21.41
2022-08-09T06:24:52.756Z,21.71
2022-08-09T06:27:55.374Z,21.53
2022-08-09T06:30:57.604Z,21.63
2022-08-09T06:33:59.880Z,22.54
2022-08-09T06:37:02.107Z,22.25
2022-08-09T06:40:21.985Z,22.08
2022-08-09T06:43:26.556Z,22.35
2022-08-09T06:46:39.578Z,22.42
2022-08-09T06:50:11.613Z,22.49
2022-08-09T06:53:05.883Z,22.34
2022-08-09T06:56:09.126Z,23.03
2022-08-09T07:00:50.247Z,23.18
2022-08-09T07:02:34.256Z,23.11
2022-08-09T07:06:02.240Z,23.71
2022-08-09T07:09:01.585Z,22.92
2022-08-09T07:12:04.220Z,22.81
2022-08-09T07:15:53.825Z,23.61
2022-08-09T07:18:29.525Z,23.56
2022-08-09T07:21:36.575Z,23.76
2022-08-09T07:24:40.775Z,24.01
2022-08-09T07:27:53.559Z,24.52
2022-08-09T07:30:57.945Z,24.92
2022-08-09T07:34:00.136Z,25.39
2022-08-09T07:37:02.606Z,25.22
2022-08-09T07:40:05.584Z,25.54
2022-08-09T07:43:16.610Z,25.34
2022-08-09T07:46:19.694Z,25.37
2022-08-09T07:49:21.981Z,26.09
2022-08-09T07:52:24.239Z,25.97
2022-08-09T07:55:28.647Z,25.64
2022-08-09T07:58:31.057Z,26.09
2022-08-09T08:01:34.588Z,26.47
2022-08-09T08:04:37.338Z,25.70
2022-08-09T08:08:43.083Z,26.10
2022-08-09T08:11:03.459Z,25.86
2022-08-09T08:14:25.779Z,25.85
2022-08-09T08:17:52.423Z,26.19
2022-08-09T08:20:51.207Z,25.55
2022-08-09T08:23:55.959Z,25.55
2022-08-09T08:26:58.588Z,26.28
2022-08-09T08:30:03.711Z,26.61
2022-08-09T08:33:06.805Z,26.35
2022-08-09T08:36:14.274Z,26.78
2022-08-09T08:39:31.702Z,26.66
2022-08-09T08:42:43.361Z,26.72
2022-08-09T08:46:03.750Z,26.82
2022-08-09T08:49:12.858Z,26.98
2022-08-09T08:55:52.612Z,27.27
2022-08-09T08:58:55.094Z,26.98
2022-08-09T09:01:59.554Z,26.62
2022-08-09T09:05:02.942Z,26.41
2022-08-09T09:08:31.067Z,26.69
2022-08-09T09:11:38.470Z,27.12
2022-08-09T09:14:42.569Z,27.22
2022-08-09T09:17:49.098Z,26.56
2022-08-09T09:20:55.196Z,26.86
2022-08-09T09:24:04.758Z,26.30
2022-08-09T09:28:04.619Z,26.70
2022-08-09T09:30:57.613Z,27.26
2022-08-09T09:34:14.203Z,27.82
2022-08-09T09:37:31.802Z,28.01
2022-08-09T09:40:42.269Z,28.10
2022-08-09T09:44:12.989Z,27.68
2022-08-09T09:47:16.652Z,26.80
2022-08-09T09:50:49.727Z,26.79
2022-08-09T09:54:19.095Z,27.01
2022-08-09T09:58:02.195Z,27.27
2022-08-09T10:00:58.701Z,27.43
2022-08-09T10:04:08.709Z,27.59
2022-08-09T10:07:23.937Z,27.36
2022-08-09T10:10:31.616Z,26.66
2022-08-09T10:13:43.593Z,26.25
2022-08-09T10:16:56.563Z,26.36
2022-08-09T10:20:32.493Z,26.08
2022-08-09T10:23:38.294Z,26.20
2022-08-09T10:26:42.475Z,26.25
2022-08-09T10:30:16.513Z,26.41
2022-08-09T10:33:29.592Z,26.81
2022-08-09T10:36:34.115Z,27.19
2022-08-09T10:39:40.856Z,26.89
2022-08-09T10:42:53.137Z,28.15
2022-08-09T10:46:00.066Z,28.95
2022-08-09T10:49:17.445Z,29.11
2022-08-09T10:52:37.410Z,27.96
2022-08-09T10:55:58.217Z,28.28
2022-08-09T10:59:23.346Z,27.63
2022-08-09T11:03:15.797Z,27.90
2022-08-09T11:06:25.377Z,27.57
2022-08-09T11:09:41.191Z,27.58
2022-08-09T11:13:49.370Z,27.03
2022-08-09T11:16:39.362Z,27.63
2022-08-09T11:20:11.184Z,27.63
2022-08-09T11:23:23.962Z,27.84
2022-08-09T11:26:40.020Z,28.15
2022-08-09T11:30:02.304Z,27.96
2022-08-09T11:33:26.037Z,27.56
2022-08-09T11:36:42.344Z,27.17
2022-08-09T11:40:01.399Z,27.03
2022-08-09T11:43:05.384Z,27.50
2022-08-09T11:46:08.972Z,27.41
2022-08-09T11:49:16.992Z,27.62
2022-08-09T11:53:16.695Z,28.08
2022-08-09T11:56:14.288Z,28.31
2022-08-09T11:59:30.119Z,28.53
2022-08-09T12:02:53.726Z,28.70
2022-08-09T12:05:58.530Z,28.75
2022-08-09T12:09:02.037Z,27.90
2022-08-09T12:12:12.880Z,28.19
2022-08-09T12:15:48.906Z,28.02
2022-08-09T12:18:53.878Z,28.26
2022-08-09T12:22:00.915Z,27.87
2022-08-09T12:25:31.858Z,27.48
2022-08-09T12:29:00.307Z,27.61
2022-08-09T12:32:10.970Z,27.58
2022-08-09T12:35:19.336Z,27.34
2022-08-09T12:38:29.710Z,27.18
2022-08-09T12:41:40.553Z,27.18
2022-08-09T12:44:46.624Z,27.31
2022-08-09T12:47:54.846Z,27.41
2022-08-09T12:50:58.184Z,27.57
2022-08-09T12:54:03.042Z,27.48
2022-08-09T12:57:05.622Z,27.60
2022-08-09T13:00:18.391Z,27.27
2022-08-09T13:03:58.533Z,27.32
2022-08-09T13:06:54.100Z,27.23
2022-08-09T13:10:03.153Z,27.15
2022-08-09T13:13:10.278Z,27.17
2022-08-09T13:16:15.826Z,27.59
2022-08-09T13:20:08.665Z,27.44
2022-08-09T13:23:16.417Z,27.18
2022-08-09T13:26:36.928Z,27.18
2022-08-09T13:30:02.988Z,27.14
2022-08-09T13:33:01.928Z,27.02
2022-08-09T13:36:39.203Z,27.08
2022-08-09T13:41:46.489Z,27.12
2022-08-09T13:42:50.273Z,27.08
2022-08-09T13:46:43.633Z,27.06
2022-08-09T13:49:18.116Z,27.04
2022-08-09T13:52:21.104Z,27.10
2022-08-09T13:55:23.276Z,26.95
2022-08-09T13:58:25.641Z,26.97
2022-08-09T14:01:56.658Z,27.10
2022-08-09T14:04:59.688Z,27.26
2022-08-09T14:08:04.592Z,27.17
2022-08-09T14:11:15.973Z,27.35
2022-08-09T14:14:25.727Z,27.41
2022-08-09T14:17:32.739Z,27.74
2022-08-09T14:20:52.793Z,27.85
2022-08-09T14:23:57.001Z,27.61
2022-08-09T14:27:01.245Z,27.58
2022-08-09T14:30:36.325Z,27.83
2022-08-09T14:33:27.043Z,28.40
2022-08-09T14:36:39.889Z,28.30
2022-08-09T14:39:48.349Z,28.54
2022-08-09T14:42:51.113Z,28.27
2022-08-09T14:46:55.436Z,28.25
2022-08-09T14:49:16.169Z,28.54
2022-08-09T14:52:18.540Z,28.36
2022-08-09T14:55:21.346Z,28.26
2022-08-09T14:58:23.693Z,27.99
2022-08-09T15:01:28.461Z,28.05
2022-08-09T15:04:33.740Z,27.88
2022-08-09T15:07:36.102Z,28.00
2022-08-09T15:10:38.980Z,28.18
2022-08-09T15:13:56.163Z,27.91
2022-08-09T15:17:07.598Z,27.89
2022-08-09T15:20:15.253Z,27.80
2022-08-09T15:24:02.513Z,27.68
2022-08-09T15:26:46.021Z,27.75
2022-08-09T15:30:57.554Z,27.70
2022-08-09T15:33:23.229Z,27.63
2022-08-09T15:36:30.664Z,27.58
2022-08-09T15:39:43.804Z,27.43
2022-08-09T15:42:55.112Z,27.48
2022-08-09T15:46:28.222Z,27.52
2022-08-09T15:49:23.771Z,27.44
2022-08-09T15:52:26.292Z,27.33
2022-08-09T15:55:29.061Z,27.38
2022-08-09T15:58:37.440Z,27.54
2022-08-09T16:01:41.635Z,27.51
2022-08-09T16:04:45.171Z,27.50
2022-08-09T16:07:51.916Z,27.42
2022-08-09T16:10:55.840Z,27.24
2022-08-09T16:14:02.864Z,27.19
2022-08-09T16:17:08.914Z,27.24
2022-08-09T16:20:12.838Z,27.21
2022-08-09T16:23:15.179Z,27.21
2022-08-09T16:26:34.940Z,27.46
2022-08-09T16:29:50.037Z,27.45
2022-08-09T16:33:09.432Z,27.67
2022-08-09T16:36:15.953Z,27.61
2022-08-09T16:39:20.859Z,27.45
2022-08-09T16:42:23.873Z,27.44
2022-08-09T16:45:27.428Z,27.34
2022-08-09T16:48:50.544Z,27.13
2022-08-09T16:51:55.203Z,27.17
2022-08-09T16:54:57.718Z,27.02
2022-08-09T16:58:09.834Z,26.99
2022-08-09T17:01:13.627Z,27.05
2022-08-09T17:04:26.114Z,27.01
2022-08-09T17:08:45.078Z,26.85
2022-08-09T17:10:53.289Z,26.91
2022-08-09T17:14:00.956Z,26.89
2022-08-09T17:17:13.009Z,26.90
2022-08-09T17:20:32.573Z,26.86
2022-08-09T17:24:28.400Z,26.90
2022-08-09T17:27:02.015Z,26.94
2022-08-09T17:30:12.626Z,26.70
2022-08-09T17:33:22.284Z,26.81
2022-08-09T17:36:25.322Z,27.01
2022-08-09T17:39:52.822Z,26.80
2022-08-09T17:42:55.739Z,26.63
2022-08-09T17:46:06.859Z,26.87
2022-08-09T17:49:09.978Z,26.80
2022-08-09T17:52:22.133Z,26.78
2022-08-09T17:55:24.850Z,26.77
2022-08-09T17:58:47.534Z,26.70
2022-08-09T18:02:07.786Z,26.57
2022-08-09T18:05:12.919Z,26.51
2022-08-09T18:08:16.140Z,26.19
2022-08-09T18:11:23.747Z,25.78
2022-08-09T18:14:26.732Z,25.95
2022-08-09T18:18:02.521Z,25.81
2022-08-09T18:20:56.143Z,25.80
2022-08-09T18:24:10.445Z,25.63
2022-08-09T18:27:59.898Z,25.65
2022-08-09T18:30:48.657Z,25.34
2022-08-09T18:33:53.268Z,25.27
2022-08-09T18:36:56.150Z,25.13
2022-08-09T18:39:58.520Z,25.02
2022-08-09T18:43:00.807Z,25.03
2022-08-09T18:46:49.929Z,24.99
2022-08-09T18:49:27.593Z,24.87
2022-08-09T18:52:35.519Z,24.72
2022-08-09T18:55:56.123Z,24.55
2022-08-09T18:59:01.015Z,24.38
2022-08-09T19:02:04.535Z,24.32
2022-08-09T19:05:20.452Z,24.29
2022-08-09T19:08:31.505Z,24.05
2022-08-09T19:11:35.194Z,23.75
2022-08-09T19:14:40.356Z,23.93
2022-08-09T19:17:54.425Z,23.62
2022-08-09T19:20:58.904Z,23.66
2022-08-09T19:24:37.524Z,23.62
2022-08-09T19:27:28.502Z,23.46
2022-08-09T19:30:32.464Z,23.26
2022-08-09T19:33:35.414Z,23.36
2022-08-09T19:36:37.658Z,23.34
2022-08-09T19:40:04.666Z,23.28
2022-08-09T19:43:10.258Z,23.21
2022-08-09T19:46:34.006Z,23.26
2022-08-09T19:50:07.709Z,23.25
2022-08-09T19:53:04.191Z,23.21
2022-08-09T19:56:07.175Z,23.11
2022-08-09T19:59:39.258Z,22.96
2022-08-09T20:04:23.694Z,22.95
2022-08-09T20:06:04.057Z,22.98
2022-08-09T20:09:06.388Z,23.01
2022-08-09T20:12:09.388Z,22.94
2022-08-09T20:16:38.342Z,22.99
2022-08-09T20:19:42.323Z,22.89
2022-08-09T20:22:14.784Z,22.84
2022-08-09T20:25:22.623Z,22.64
2022-08-09T20:28:34.659Z,22.71
2022-08-09T20:31:51.447Z,22.61
2022-08-09T20:35:10.065Z,22.33
2022-08-09T20:38:22.293Z,22.35
2022-08-09T20:41:37.746Z,22.39
2022-08-09T20:44:40.204Z,22.31
2022-08-09T20:47:53.111Z,22.45
2022-08-09T20:50:58.298Z,22.38
2022-08-09T20:54:00.695Z,22.35
2022-08-09T20:57:06.417Z,22.22
2022-08-09T21:00:20.376Z,22.16
2022-08-09T21:04:07.625Z,21.95
2022-08-09T21:06:55.943Z,21.87
2022-08-09T21:09:58.714Z,21.79
2022-08-09T21:13:01.299Z,21.76
2022-08-09T21:16:04.336Z,21.78
2022-08-09T21:20:17.937Z,21.75
2022-08-09T21:22:46.906Z,21.78
2022-08-09T21:25:59.813Z,21.99
2022-08-09T21:29:02.365Z,21.99
2022-08-09T21:32:18.804Z,21.92
2022-08-09T21:35:21.949Z,21.96
2022-08-09T21:38:31.286Z,21.93
2022-08-09T21:42:03.746Z,21.91
2022-08-09T21:44:57.114Z,22.00
2022-08-09T21:47:59.730Z,22.17
2022-08-09T21:51:01.955Z,21.88
2022-08-09T21:54:04.920Z,21.91
2022-08-09T21:57:07.083Z,21.88
2022-08-09T22:00:33.175Z,21.77
2022-08-09T22:03:36.773Z,21.74
2022-08-09T22:06:59.104Z,21.72
2022-08-09T22:10:08.668Z,21.60
2022-08-09T22:13:11.571Z,21.52
2022-08-09T22:16:13.881Z,21.44
2022-08-09T22:19:57.762Z,21.46
2022-08-09T22:22:39.974Z,21.53
2022-08-09T22:26:08.075Z,21.53
2022-08-09T22:29:07.432Z,21.39
2022-08-09T22:32:29.437Z,21.35
2022-08-09T22:36:00.794Z,21.46
2022-08-09T22:38:54.597Z,21.31
2022-08-09T22:41:56.915Z,21.20
2022-08-09T22:48:10.862Z,21.36
2022-08-09T22:48:36.242Z,21.17
2022-08-09T22:51:49.436Z,21.23
2022-08-09T22:54:52.163Z,21.11
2022-08-09T22:57:59.630Z,20.77
2022-08-09T23:01:03.815Z,20.53
2022-08-09T23:04:07.535Z,20.32
2022-08-09T23:08:23.128Z,20.28
2022-08-09T23:10:50.517Z,20.11
2022-08-09T23:13:53.713Z,19.84
2022-08-09T23:16:55.994Z,19.82
2022-08-09T23:20:06.276Z,19.70
2022-08-09T23:23:09.841Z,19.79
2022-08-09T23:26:12.023Z,19.87
2022-08-09T23:29:14.256Z,19.78
2022-08-09T23:32:16.558Z,19.85
2022-08-09T23:35:18.780Z,19.97
2022-08-09T23:38:21.353Z,20.10
2022-08-09T23:41:27.746Z,20.17
2022-08-09T23:44:31.714Z,20.17
2022-08-09T23:47:33.912Z,19.99
2022-08-09T23:50:36.397Z,19.80
2022-08-09T23:53:38.766Z,19.61
2022-08-09T23:56:54.626Z,19.47
